Time;durP1;ratioP1;P1;durP2;ratioP2;P2;SDS_P1;SDS_P2;PMS_P1;PMS_P2;Temp;Humidity;BMP_temperature;BMP_pressure;BME280_temperature;BME280_humidity;BME280_pressure;Samples;Min_cycle;Max_cycle;Signal;HPM_P1;HPM_P2
2021/07/17 00:00:11;;;;;;;28.20;20.63;;;17.80;99.90;;;;;;5093389;28;20453;-65
2021/07/17 00:02:38;;;;;;;26.10;19.43;;;17.90;99.90;;;;;;5093394;28;20448;-65
2021/07/17 00:05:07;;;;;;;26.97;21.20;;;17.80;99.90;;;;;;5093767;28;20446;-65
2021/07/17 00:07:33;;;;;;;26.17;22.17;;;17.80;99.90;;;;;;5093468;28;20488;-64
2021/07/17 00:10:00;;;;;;;25.10;20.90;;;17.80;99.90;;;;;;5092997;28;20475;-65
2021/07/17 00:12:27;;;;;;;28.30;20.90;;;17.80;99.90;;;;;;5093212;28;20816;-64
2021/07/17 00:14:54;;;;;;;29.00;22.97;;;17.80;99.90;;;;;;5093016;28;20507;-66
2021/07/17 00:17:23;;;;;;;30.87;23.57;;;17.70;99.90;;;;;;5093037;28;20532;-65
2021/07/17 00:19:50;;;;;;;30.03;23.77;;;17.60;99.90;;;;;;5092232;28;20450;-65
2021/07/17 00:22:16;;;;;;;29.13;23.43;;;17.50;99.90;;;;;;5092701;28;20442;-65
2021/07/17 00:24:43;;;;;;;30.73;23.80;;;17.40;99.90;;;;;;5092367;28;20473;-65
2021/07/17 00:27:10;;;;;;;32.63;24.53;;;17.30;99.90;;;;;;5092720;28;20478;-65
2021/07/17 00:29:37;;;;;;;37.70;24.73;;;17.30;99.90;;;;;;5092343;28;20677;-65
2021/07/17 00:32:04;;;;;;;29.33;22.03;;;17.30;99.90;;;;;;5092458;28;20456;-65
2021/07/17 00:34:32;;;;;;;34.60;24.57;;;17.30;99.90;;;;;;5092426;28;20549;-65
2021/07/17 00:36:59;;;;;;;32.60;23.87;;;17.20;99.90;;;;;;5092182;28;20443;-65
2021/07/17 00:39:26;;;;;;;29.10;23.37;;;17.20;99.90;;;;;;5092379;28;20447;-65
2021/07/17 00:41:53;;;;;;;37.00;25.50;;;17.20;99.90;;;;;;5092212;28;21023;-65
2021/07/17 00:44:21;;;;;;;34.80;24.30;;;17.10;99.90;;;;;;5092140;28;20477;-65
2021/07/17 00:46:48;;;;;;;38.40;24.00;;;17.10;99.90;;;;;;5092102;28;20480;-64
2021/07/17 00:49:18;;;;;;;31.10;23.30;;;17.10;99.90;;;;;;5091910;28;20537;-65
2021/07/17 00:51:47;;;;;;;28.83;22.90;;;17.00;99.90;;;;;;5092074;28;20474;-65
2021/07/17 00:54:19;;;;;;;30.07;22.37;;;17.00;99.90;;;;;;5092010;28;20477;-65
2021/07/17 00:56:47;;;;;;;34.87;24.30;;;17.00;99.90;;;;;;5092254;28;20442;-65
2021/07/17 00:59:18;;;;;;;34.80;24.60;;;16.90;99.90;;;;;;5090605;28;20458;-65
2021/07/17 01:01:46;;;;;;;33.30;26.57;;;16.90;99.90;;;;;;5091870;28;20438;-65
2021/07/17 01:04:14;;;;;;;31.50;24.40;;;16.90;99.90;;;;;;5091704;28;20863;-65
2021/07/17 01:06:42;;;;;;;36.40;26.73;;;16.90;99.90;;;;;;5092114;28;20488;-65
2021/07/17 01:09:10;;;;;;;37.67;25.60;;;17.00;99.90;;;;;;5091300;28;20981;-65
2021/07/17 01:11:37;;;;;;;32.93;24.93;;;17.00;99.90;;;;;;5091655;28;20445;-65
2021/07/17 01:14:04;;;;;;;34.37;24.37;;;17.00;99.90;;;;;;5091495;28;20462;-65
2021/07/17 01:16:32;;;;;;;36.30;24.93;;;17.00;99.90;;;;;;5091563;28;20446;-64
2021/07/17 01:18:59;;;;;;;36.43;24.47;;;17.00;99.90;;;;;;5091589;28;20456;-64
2021/07/17 01:21:28;;;;;;;34.47;23.70;;;17.10;99.90;;;;;;5091621;28;20634;-64
2021/07/17 01:23:55;;;;;;;39.87;26.10;;;17.10;99.90;;;;;;5091698;28;20462;-65
2021/07/17 01:26:23;;;;;;;34.20;24.70;;;17.10;99.90;;;;;;5091409;28;20838;-65
2021/07/17 01:28:50;;;;;;;32.07;24.83;;;17.10;99.90;;;;;;5091419;28;20454;-64
2021/07/17 01:31:16;;;;;;;33.80;23.70;;;17.10;99.90;;;;;;5090947;28;20448;-65
2021/07/17 01:33:43;;;;;;;32.33;24.00;;;17.10;99.90;;;;;;5091506;28;20497;-65
2021/07/17 01:36:10;;;;;;;30.80;24.10;;;17.10;99.90;;;;;;5091416;28;20923;-65
2021/07/17 01:38:38;;;;;;;35.13;25.30;;;17.10;99.90;;;;;;5091194;28;20446;-65
2021/07/17 01:41:05;;;;;;;32.37;24.13;;;17.20;99.90;;;;;;5090933;28;20819;-65
2021/07/17 01:43:32;;;;;;;36.33;25.80;;;17.10;99.90;;;;;;5090752;28;20468;-65
2021/07/17 01:45:59;;;;;;;34.30;25.80;;;17.10;99.90;;;;;;5090836;28;20442;-65
2021/07/17 01:48:27;;;;;;;35.87;25.27;;;17.10;99.90;;;;;;5091113;28;20533;-64
2021/07/17 01:50:53;;;;;;;30.87;24.27;;;17.10;99.90;;;;;;5090922;28;20446;-65
2021/07/17 01:53:22;;;;;;;33.10;25.23;;;17.10;99.90;;;;;;5091054;28;20462;-65
2021/07/17 01:55:50;;;;;;;32.33;23.80;;;17.10;99.90;;;;;;5091184;28;20442;-65
2021/07/17 01:58:17;;;;;;;38.93;24.70;;;17.10;99.90;;;;;;5090921;28;20445;-65
2021/07/17 02:00:44;;;;;;;30.60;24.27;;;17.20;99.90;;;;;;5090434;28;20442;-65
2021/07/17 02:03:11;;;;;;;31.07;24.00;;;17.20;99.90;;;;;;5090930;28;20484;-65
2021/07/17 02:05:38;;;;;;;31.03;23.60;;;17.20;99.90;;;;;;5090572;28;20448;-65
2021/07/17 02:08:06;;;;;;;30.30;22.97;;;17.20;99.90;;;;;;5090722;28;20488;-65
2021/07/17 02:10:35;;;;;;;32.63;23.40;;;17.20;99.90;;;;;;5090143;28;20454;-65
2021/07/17 02:13:05;;;;;;;29.20;21.77;;;17.20;99.90;;;;;;5090464;28;20470;-65
2021/07/17 02:15:34;;;;;;;31.17;23.03;;;17.20;99.90;;;;;;5090569;28;20442;-65
2021/07/17 02:18:02;;;;;;;31.80;25.13;;;17.20;99.90;;;;;;5090412;28;20446;-65
2021/07/17 02:20:30;;;;;;;30.47;23.87;;;17.20;99.90;;;;;;5090466;28;20549;-65
2021/07/17 02:22:57;;;;;;;34.57;24.83;;;17.20;99.90;;;;;;5090370;28;20474;-65
2021/07/17 02:25:23;;;;;;;32.10;23.77;;;17.20;99.90;;;;;;5090262;28;20460;-65
2021/07/17 02:27:50;;;;;;;36.70;26.43;;;17.20;99.90;;;;;;5090254;28;20577;-65
2021/07/17 02:30:19;;;;;;;32.63;24.60;;;17.20;99.90;;;;;;5090192;28;20450;-65
2021/07/17 02:32:46;;;;;;;29.23;22.77;;;17.20;99.90;;;;;;5090210;28;20466;-65
2021/07/17 02:35:13;;;;;;;34.70;24.00;;;17.20;99.90;;;;;;5090350;28;20456;-65
2021/07/17 02:37:40;;;;;;;30.37;23.60;;;17.10;99.90;;;;;;5090115;28;20964;-65
2021/07/17 02:40:08;;;;;;;36.67;24.40;;;17.20;99.90;;;;;;5089836;28;20444;-65
2021/07/17 02:42:36;;;;;;;36.27;24.70;;;17.10;99.90;;;;;;5090271;28;20833;-65
2021/07/17 02:45:06;;;;;;;37.20;25.97;;;17.10;99.90;;;;;;5089980;28;20460;-65
2021/07/17 02:47:35;;;;;;;34.40;24.13;;;17.10;99.90;;;;;;5090028;28;20488;-65
2021/07/17 02:50:02;;;;;;;34.47;25.07;;;17.20;99.90;;;;;;5089770;28;20446;-65
2021/07/17 02:52:29;;;;;;;34.97;25.53;;;17.10;99.90;;;;;;5089832;28;20447;-64
2021/07/17 02:54:56;;;;;;;32.00;24.30;;;17.10;99.90;;;;;;5089816;28;20537;-65
2021/07/17 02:57:23;;;;;;;35.83;25.20;;;17.00;99.90;;;;;;5090240;28;20456;-64
2021/07/17 02:59:50;;;;;;;32.90;23.97;;;17.00;99.90;;;;;;5089572;28;20448;-65
2021/07/17 03:02:16;;;;;;;36.57;25.30;;;17.00;99.90;;;;;;5090236;28;20447;-66
2021/07/17 03:04:45;;;;;;;31.27;23.27;;;17.00;99.90;;;;;;5089932;28;20474;-65
2021/07/17 03:07:11;;;;;;;39.87;28.03;;;17.00;99.90;;;;;;5089573;28;20470;-65
2021/07/17 03:09:38;;;;;;;35.53;25.50;;;17.00;99.90;;;;;;5089425;28;20446;-64
2021/07/17 03:12:06;;;;;;;34.47;26.60;;;17.00;99.90;;;;;;5090015;28;20447;-65
2021/07/17 03:14:33;;;;;;;35.33;24.97;;;17.00;99.90;;;;;;5089968;28;20462;-65
2021/07/17 03:17:00;;;;;;;37.03;26.40;;;17.00;99.90;;;;;;5089807;28;20844;-65
2021/07/17 03:19:27;;;;;;;36.13;26.10;;;17.00;99.90;;;;;;5089419;28;20454;-64
2021/07/17 03:21:55;;;;;;;34.77;25.47;;;17.00;99.90;;;;;;5091528;28;20438;-65
2021/07/17 03:24:22;;;;;;;34.20;25.90;;;17.00;99.90;;;;;;5093726;28;20472;-65
2021/07/17 03:26:49;;;;;;;32.00;25.33;;;17.00;99.90;;;;;;5093946;28;20490;-65
2021/07/17 03:29:16;;;;;;;36.97;25.60;;;17.00;99.90;;;;;;5093513;28;20537;-65
2021/07/17 03:31:43;;;;;;;30.17;24.10;;;17.00;99.90;;;;;;5093895;28;20445;-65
2021/07/17 03:34:09;;;;;;;33.50;24.57;;;17.00;99.90;;;;;;5093520;28;20488;-65
2021/07/17 03:36:36;;;;;;;34.03;27.40;;;17.00;99.90;;;;;;5094034;28;20812;-65
2021/07/17 03:39:04;;;;;;;38.30;26.00;;;17.00;99.90;;;;;;5093660;28;20815;-66
2021/07/17 03:41:32;;;;;;;38.27;27.60;;;17.00;99.90;;;;;;5093898;28;20445;-64
2021/07/17 03:43:59;;;;;;;36.93;25.40;;;17.00;99.90;;;;;;5093950;28;20480;-65
2021/07/17 03:46:26;;;;;;;31.07;24.87;;;17.00;99.90;;;;;;5093868;28;20438;-64
2021/07/17 03:48:53;;;;;;;32.70;24.63;;;17.10;99.90;;;;;;5093647;28;20478;-65
2021/07/17 03:51:20;;;;;;;36.83;26.43;;;17.10;99.90;;;;;;5092529;28;20947;-65
2021/07/17 03:53:46;;;;;;;31.47;24.90;;;17.10;99.90;;;;;;5093433;28;20472;-64
2021/07/17 03:56:15;;;;;;;35.00;26.00;;;17.10;99.90;;;;;;5092423;28;20452;-65
2021/07/17 03:58:42;;;;;;;34.33;24.63;;;17.10;99.90;;;;;;5093293;28;20442;-65
2021/07/17 04:01:08;;;;;;;32.13;26.07;;;17.10;99.90;;;;;;5092837;28;20454;-65
2021/07/17 04:03:35;;;;;;;36.37;24.50;;;17.10;99.90;;;;;;5093036;28;20556;-65
2021/07/17 04:06:02;;;;;;;34.00;24.67;;;17.10;99.90;;;;;;5093197;28;20533;-64
2021/07/17 04:08:29;;;;;;;32.03;24.77;;;17.10;99.90;;;;;;5092690;28;20477;-65
2021/07/17 04:10:56;;;;;;;34.47;26.53;;;17.10;99.90;;;;;;5092573;28;20480;-65
2021/07/17 04:20:17;;;;;;;33.37;25.63;;;17.10;99.90;;;;;;5064614;28;20453;-65
2021/07/17 04:22:52;;;;;;;35.50;26.97;;;17.10;99.90;;;;;;5092520;28;20493;-65
2021/07/17 04:25:26;;;;;;;35.20;26.37;;;17.10;99.90;;;;;;5092699;28;20448;-65
2021/07/17 04:27:53;;;;;;;34.73;26.17;;;17.10;99.90;;;;;;5091637;28;20481;-65
2021/07/17 04:30:20;;;;;;;33.10;25.90;;;17.20;99.90;;;;;;5092010;28;20442;-65
2021/07/17 04:32:47;;;;;;;30.63;24.50;;;17.20;99.90;;;;;;5091710;28;20474;-65
2021/07/17 04:35:16;;;;;;;33.40;25.30;;;17.30;99.90;;;;;;5092229;28;20485;-65
2021/07/17 04:37:43;;;;;;;35.10;27.20;;;17.30;99.90;;;;;;5092493;28;20441;-65
2021/07/17 04:40:11;;;;;;;36.07;26.20;;;17.30;99.90;;;;;;5091958;28;20552;-65
2021/07/17 04:42:38;;;;;;;33.50;25.20;;;17.40;99.90;;;;;;5092233;28;20453;-65
2021/07/17 04:45:07;;;;;;;28.67;24.33;;;17.40;99.90;;;;;;5092033;28;20442;-65
2021/07/17 04:47:34;;;;;;;31.43;23.97;;;17.40;99.90;;;;;;5092454;28;20925;-65
2021/07/17 04:50:02;;;;;;;36.60;26.03;;;17.50;99.90;;;;;;5091794;28;20452;-64
2021/07/17 04:52:31;;;;;;;33.03;25.60;;;17.50;99.90;;;;;;5092067;28;20846;-65
2021/07/17 04:54:57;;;;;;;36.60;25.73;;;17.50;99.90;;;;;;5092156;28;20451;-65
2021/07/17 04:57:24;;;;;;;30.50;24.07;;;17.50;99.90;;;;;;5091879;28;20944;-65
2021/07/17 04:59:51;;;;;;;32.60;25.67;;;17.50;99.90;;;;;;5091579;28;20442;-65
2021/07/17 05:02:18;;;;;;;33.83;25.77;;;17.50;99.90;;;;;;5091735;28;20446;-65
2021/07/17 05:04:45;;;;;;;30.77;24.00;;;17.60;99.90;;;;;;5092065;28;20482;-65
2021/07/17 05:07:11;;;;;;;29.97;24.33;;;17.50;99.90;;;;;;5091657;28;20444;-66
2021/07/17 05:09:40;;;;;;;29.27;23.13;;;17.60;99.90;;;;;;5091632;28;20820;-65
2021/07/17 05:12:07;;;;;;;29.30;24.47;;;17.60;99.90;;;;;;5091811;28;20446;-65
2021/07/17 05:14:34;;;;;;;29.97;24.27;;;17.60;99.90;;;;;;5091816;28;20470;-66
2021/07/17 05:17:01;;;;;;;32.23;23.37;;;17.60;99.90;;;;;;5091997;28;20482;-66
2021/07/17 05:19:27;;;;;;;30.93;24.77;;;17.60;99.90;;;;;;5091158;28;20449;-66
2021/07/17 05:21:54;;;;;;;29.73;24.30;;;17.70;99.90;;;;;;5091683;28;20468;-66
2021/07/17 05:24:21;;;;;;;32.20;24.17;;;17.80;99.90;;;;;;5091459;28;20488;-65
2021/07/17 05:26:49;;;;;;;27.30;23.10;;;17.90;99.90;;;;;;5091531;28;20528;-66
2021/07/17 05:29:16;;;;;;;28.40;22.37;;;18.00;99.90;;;;;;5091347;28;20598;-65
2021/07/17 05:31:43;;;;;;;28.37;23.00;;;18.10;99.90;;;;;;5091910;28;20458;-66
2021/07/17 05:34:10;;;;;;;28.40;23.20;;;18.10;99.90;;;;;;5091757;28;20461;-65
2021/07/17 05:36:36;;;;;;;24.50;21.67;;;18.00;99.90;;;;;;5091359;28;21020;-65
2021/07/17 05:39:04;;;;;;;27.83;21.60;;;18.00;99.90;;;;;;5090964;28;20438;-65
2021/07/17 05:41:30;;;;;;;25.57;22.77;;;18.00;99.90;;;;;;5090983;28;20863;-65
2021/07/17 05:43:58;;;;;;;26.73;20.40;;;18.10;99.90;;;;;;5091040;28;20473;-65
2021/07/17 05:46:25;;;;;;;31.90;21.70;;;18.20;99.90;;;;;;5091010;28;20456;-64
2021/07/17 05:48:52;;;;;;;26.63;21.60;;;18.20;99.90;;;;;;5090972;28;20494;-65
2021/07/17 05:51:19;;;;;;;28.97;21.53;;;18.20;99.90;;;;;;5090638;28;21117;-65
2021/07/17 05:53:47;;;;;;;28.90;22.97;;;18.20;99.90;;;;;;5090468;28;20459;-65
2021/07/17 05:56:13;;;;;;;27.63;21.83;;;18.20;99.90;;;;;;5090946;28;20549;-66
2021/07/17 05:58:40;;;;;;;28.00;22.00;;;18.30;99.90;;;;;;5090838;28;20452;-66
2021/07/17 06:01:09;;;;;;;24.50;19.93;;;18.30;99.90;;;;;;5090573;28;20457;-65
2021/07/17 06:03:35;;;;;;;20.87;18.60;;;18.30;99.90;;;;;;5090599;28;20462;-65
2021/07/17 06:06:02;;;;;;;21.80;19.37;;;18.40;99.90;;;;;;5090678;28;20936;-65
2021/07/17 06:08:29;;;;;;;23.10;20.57;;;18.40;99.90;;;;;;5090360;28;20481;-65
2021/07/17 06:10:56;;;;;;;26.43;20.40;;;18.70;99.90;;;;;;5090602;28;20442;-65
2021/07/17 06:13:23;;;;;;;24.27;19.83;;;18.70;99.90;;;;;;5090136;28;20470;-63
2021/07/17 06:15:49;;;;;;;22.53;18.30;;;18.90;99.90;;;;;;5086131;28;20449;-64
2021/07/17 06:18:18;;;;;;;23.67;20.87;;;19.10;99.90;;;;;;5082777;28;21141;-63
2021/07/17 06:20:45;;;;;;;21.87;18.80;;;19.20;99.90;;;;;;5078868;28;20447;-65
2021/07/17 06:23:13;;;;;;;22.13;19.60;;;19.30;99.90;;;;;;5083062;28;20502;-65
2021/07/17 06:25:40;;;;;;;24.23;20.80;;;19.40;99.90;;;;;;5081736;28;20452;-65
2021/07/17 06:28:07;;;;;;;20.73;18.53;;;19.40;99.90;;;;;;5089828;28;21017;-64
2021/07/17 06:30:34;;;;;;;25.23;19.00;;;19.40;99.90;;;;;;5087719;28;20464;-65
2021/07/17 06:33:01;;;;;;;21.87;18.93;;;19.20;99.90;;;;;;5089714;28;20464;-64
2021/07/17 06:35:29;;;;;;;23.23;18.77;;;19.10;99.90;;;;;;5089803;28;20950;-64
2021/07/17 06:37:56;;;;;;;23.53;18.97;;;19.10;99.90;;;;;;5090089;28;20442;-67
2021/07/17 06:40:23;;;;;;;22.10;18.53;;;19.10;99.90;;;;;;5089670;28;20442;-67
2021/07/17 06:42:51;;;;;;;25.00;18.93;;;19.10;99.90;;;;;;5089882;28;20537;-65
2021/07/17 06:45:19;;;;;;;26.03;17.77;;;19.10;99.90;;;;;;5089873;28;20960;-64
2021/07/17 06:47:47;;;;;;;22.40;20.10;;;19.10;99.90;;;;;;5086293;28;20458;-65
2021/07/17 06:50:15;;;;;;;23.87;19.13;;;18.90;99.90;;;;;;5085064;28;20458;-65
2021/07/17 06:52:43;;;;;;;24.60;20.63;;;18.80;99.90;;;;;;5089473;28;20492;-65
2021/07/17 06:55:11;;;;;;;23.23;19.00;;;18.90;99.90;;;;;;5086381;28;20455;-65
2021/07/17 06:57:40;;;;;;;26.93;19.27;;;19.00;99.90;;;;;;5088832;28;20454;-65
2021/07/17 07:00:09;;;;;;;25.83;19.03;;;19.10;99.90;;;;;;5088995;28;20620;-65
2021/07/17 07:02:36;;;;;;;26.03;19.30;;;19.20;99.90;;;;;;5087918;28;20464;-65
2021/07/17 07:05:03;;;;;;;23.27;19.07;;;19.20;99.90;;;;;;5078900;28;20453;-65
2021/07/17 07:07:29;;;;;;;22.10;19.33;;;19.30;99.90;;;;;;5085148;28;20442;-65
2021/07/17 07:09:58;;;;;;;25.43;19.07;;;19.50;99.90;;;;;;5081350;28;20508;-65
2021/07/17 07:12:25;;;;;;;20.97;18.87;;;19.70;99.90;;;;;;5078665;28;20567;-65
2021/07/17 07:14:52;;;;;;;21.13;18.33;;;19.90;99.90;;;;;;5088255;28;20889;-65
2021/07/17 07:17:19;;;;;;;20.60;18.40;;;19.90;99.90;;;;;;5083942;28;20967;-65
2021/07/17 07:19:45;;;;;;;23.10;19.27;;;20.00;99.90;;;;;;5083159;28;20455;-65
2021/07/17 07:22:12;;;;;;;24.60;17.90;;;20.10;99.90;;;;;;5077778;28;20956;-65
2021/07/17 07:24:39;;;;;;;21.77;18.90;;;19.90;99.90;;;;;;5084174;28;20470;-66
2021/07/17 07:27:07;;;;;;;22.77;19.80;;;19.80;99.90;;;;;;5089624;28;20530;-66
2021/07/17 07:29:35;;;;;;;23.10;18.77;;;19.70;99.90;;;;;;5088838;28;20488;-66
2021/07/17 07:32:02;;;;;;;26.90;20.00;;;19.60;99.90;;;;;;5090052;28;20450;-65
2021/07/17 07:34:29;;;;;;;27.50;19.43;;;19.40;99.90;;;;;;5088161;28;20557;-65
2021/07/17 07:36:56;;;;;;;22.93;18.70;;;19.30;99.90;;;;;;5089694;28;20438;-66
2021/07/17 07:39:23;;;;;;;30.43;19.93;;;19.30;99.90;;;;;;5088978;28;20435;-66
2021/07/17 07:41:49;;;;;;;22.67;19.83;;;19.30;99.90;;;;;;5089517;28;20441;-66
2021/07/17 07:44:18;;;;;;;21.97;18.00;;;19.40;99.90;;;;;;5088228;28;20481;-65
2021/07/17 07:46:45;;;;;;;25.63;20.30;;;19.30;99.90;;;;;;5088995;28;20470;-65
2021/07/17 07:49:12;;;;;;;24.97;20.50;;;19.20;99.90;;;;;;5089484;28;20482;-64
2021/07/17 07:51:39;;;;;;;22.60;18.80;;;19.00;99.90;;;;;;5089327;28;20452;-65
2021/07/17 07:54:06;;;;;;;26.27;19.87;;;18.90;99.90;;;;;;5086751;28;20461;-65
2021/07/17 07:56:33;;;;;;;22.43;19.33;;;18.90;99.90;;;;;;5089124;28;20436;-66
2021/07/17 07:58:59;;;;;;;28.60;19.97;;;18.80;99.90;;;;;;5089028;28;21037;-66
2021/07/17 08:01:28;;;;;;;26.40;19.43;;;18.90;99.90;;;;;;5084390;28;20445;-66
2021/07/17 08:03:55;;;;;;;24.20;19.40;;;18.90;99.90;;;;;;5082528;28;20529;-66
2021/07/17 08:06:21;;;;;;;23.10;20.30;;;18.90;99.90;;;;;;5089079;28;20526;-67
2021/07/17 08:08:48;;;;;;;25.60;21.70;;;18.80;99.90;;;;;;5091671;28;21283;-66
2021/07/17 08:11:15;;;;;;;24.47;21.43;;;18.50;99.90;;;;;;5085744;28;20447;-66
2021/07/17 08:13:42;;;;;;;24.17;21.70;;;18.50;99.90;;;;;;5088848;28;20458;-66
2021/07/17 08:16:10;;;;;;;25.17;20.13;;;18.60;99.90;;;;;;5088492;28;20446;-66
2021/07/17 08:18:38;;;;;;;27.40;20.03;;;18.80;99.90;;;;;;5092161;28;20551;-66
2021/07/17 08:21:05;;;;;;;24.07;19.70;;;19.10;99.90;;;;;;5086349;28;20457;-66
2021/07/17 08:23:32;;;;;;;28.43;20.17;;;19.40;99.90;;;;;;5089724;28;20478;-66
2021/07/17 08:25:59;;;;;;;25.57;19.47;;;19.70;99.90;;;;;;5091991;28;20446;-66
2021/07/17 08:28:25;;;;;;;25.23;17.03;;;20.10;99.90;;;;;;5092632;28;20481;-65
2021/07/17 08:30:52;;;;;;;22.00;17.77;;;20.30;99.90;;;;;;5089939;28;20529;-66
2021/07/17 08:33:19;;;;;;;17.97;16.23;;;20.40;99.90;;;;;;5087459;28;20473;-66
2021/07/17 08:35:47;;;;;;;18.83;16.83;;;20.60;99.90;;;;;;5092370;28;20442;-65
2021/07/17 08:38:14;;;;;;;18.07;15.43;;;20.80;99.90;;;;;;5091930;28;20450;-66
2021/07/17 08:40:43;;;;;;;18.67;16.70;;;20.90;99.90;;;;;;5091819;28;20446;-66
2021/07/17 08:43:10;;;;;;;20.67;16.37;;;21.00;99.90;;;;;;5091956;28;20553;-66
2021/07/17 08:45:38;;;;;;;16.90;14.70;;;21.10;99.90;;;;;;5091886;28;20448;-66
2021/07/17 08:48:08;;;;;;;17.53;15.67;;;21.40;99.90;;;;;;5092329;28;20507;-66
2021/07/17 08:50:36;;;;;;;20.37;15.43;;;21.40;99.90;;;;;;5091403;28;20529;-65
2021/07/17 08:53:05;;;;;;;18.23;16.30;;;21.20;99.90;;;;;;5091779;28;20541;-66
2021/07/17 08:55:32;;;;;;;21.07;17.50;;;20.90;99.90;;;;;;5091835;28;20448;-65
2021/07/17 08:58:00;;;;;;;24.00;17.20;;;20.80;99.90;;;;;;5091941;28;20482;-66
2021/07/17 09:00:33;;;;;;;19.07;16.80;;;20.70;99.90;;;;;;5091545;28;20442;-66
2021/07/17 09:03:02;;;;;;;19.80;16.70;;;20.40;99.90;;;;;;5088894;28;21004;-66
2021/07/17 09:05:32;;;;;;;18.67;16.77;;;20.30;99.90;;;;;;5091537;28;20446;-66
2021/07/17 09:07:59;;;;;;;20.30;17.73;;;20.30;99.90;;;;;;5091563;28;20442;-66
2021/07/17 09:10:37;;;;;;;20.73;17.63;;;20.30;99.90;;;;;;5089392;28;20973;-64
2021/07/17 09:13:13;;;;;;;19.60;17.07;;;20.40;99.90;;;;;;5089557;28;20520;-63
2021/07/17 09:15:44;;;;;;;17.37;15.57;;;20.50;99.90;;;;;;5091861;28;20448;-64
2021/07/17 09:18:11;;;;;;;18.20;15.77;;;20.60;99.90;;;;;;5087048;28;20456;-65
2021/07/17 09:20:38;;;;;;;19.73;16.93;;;20.70;99.90;;;;;;5090180;28;20445;-64
2021/07/17 09:23:09;;;;;;;17.00;15.10;;;20.90;99.90;;;;;;5089858;28;20458;-66
2021/07/17 09:25:39;;;;;;;19.47;16.27;;;20.90;99.90;;;;;;5091142;28;20529;-65
2021/07/17 09:28:17;;;;;;;21.13;16.40;;;20.90;99.90;;;;;;5091412;28;20446;-65
2021/07/17 09:30:44;;;;;;;17.80;15.93;;;20.80;99.90;;;;;;5089279;28;20824;-66
2021/07/17 09:33:11;;;;;;;20.03;17.43;;;20.80;99.90;;;;;;5090019;28;20906;-66
2021/07/17 09:35:43;;;;;;;20.00;16.80;;;20.60;99.90;;;;;;5090612;28;20452;-65
2021/07/17 09:38:10;;;;;;;18.90;16.43;;;20.50;99.90;;;;;;5090864;28;20522;-65
2021/07/17 09:40:50;;;;;;;21.60;17.40;;;20.40;99.90;;;;;;5090555;28;20459;-65
2021/07/17 09:43:35;;;;;;;19.00;16.30;;;20.30;99.90;;;;;;5090546;28;20466;-65
2021/07/17 09:46:16;;;;;;;18.50;15.83;;;20.60;99.90;;;;;;5088756;28;20442;-66
2021/07/17 09:48:47;;;;;;;20.43;17.30;;;20.90;99.90;;;;;;5090789;28;20433;-65
2021/07/17 09:51:19;;;;;;;19.37;16.67;;;21.00;99.90;;;;;;5088143;28;20457;-65
2021/07/17 09:53:47;;;;;;;20.07;16.20;;;21.10;99.90;;;;;;5090183;28;20458;-65
2021/07/17 09:56:18;;;;;;;20.50;17.00;;;21.10;99.90;;;;;;5085992;28;20513;-66
2021/07/17 09:58:45;;;;;;;18.90;16.70;;;21.10;99.90;;;;;;5090437;28;20438;-65
2021/07/17 10:01:14;;;;;;;19.87;17.67;;;21.30;99.90;;;;;;5090209;28;20525;-65
2021/07/17 10:03:41;;;;;;;18.53;16.60;;;21.40;99.90;;;;;;5090178;28;20465;-66
2021/07/17 10:06:08;;;;;;;22.20;16.43;;;21.60;99.90;;;;;;5090670;28;20434;-65
2021/07/17 10:08:35;;;;;;;18.90;17.00;;;21.80;99.90;;;;;;5090614;28;20448;-65
2021/07/17 10:11:11;;;;;;;22.13;16.10;;;21.70;99.90;;;;;;5090114;28;20825;-65
2021/07/17 10:13:40;;;;;;;16.80;15.00;;;21.80;99.90;;;;;;5090359;28;20523;-65
2021/07/17 10:16:17;;;;;;;20.20;16.13;;;21.80;99.90;;;;;;5090016;28;20452;-66
2021/07/17 10:18:44;;;;;;;21.47;19.00;;;21.90;99.90;;;;;;5088676;28;20972;-66
2021/07/17 10:21:12;;;;;;;19.70;16.97;;;21.90;99.90;;;;;;5089017;28;20551;-65
2021/07/17 10:23:39;;;;;;;24.40;16.40;;;22.00;99.90;;;;;;5090165;28;21131;-66
2021/07/17 10:26:06;;;;;;;19.67;17.77;;;22.10;99.90;;;;;;5090340;28;20959;-65
2021/07/17 10:28:34;;;;;;;20.80;16.90;;;22.10;99.90;;;;;;5089869;28;20927;-66
2021/07/17 10:31:03;;;;;;;18.70;16.60;;;22.30;99.90;;;;;;5090022;28;20477;-65
2021/07/17 10:33:31;;;;;;;20.30;18.20;;;22.40;99.90;;;;;;5090298;28;20863;-67
2021/07/17 10:36:01;;;;;;;18.60;16.60;;;22.10;99.90;;;;;;5090103;28;20450;-66
2021/07/17 10:38:30;;;;;;;20.37;17.63;;;21.80;99.90;;;;;;5089819;28;21020;-66
2021/07/17 10:40:58;;;;;;;19.93;17.17;;;21.70;99.90;;;;;;5088513;28;20453;-65
2021/07/17 10:43:25;;;;;;;21.40;17.40;;;21.70;99.90;;;;;;5084238;28;20462;-63
2021/07/17 10:45:53;;;;;;;20.23;18.23;;;21.70;99.90;;;;;;5088794;28;20440;-63
2021/07/17 10:48:26;;;;;;;19.70;17.60;;;21.70;99.90;;;;;;5083282;28;20450;-65
2021/07/17 10:50:54;;;;;;;19.60;17.83;;;21.60;99.90;;;;;;5085072;28;20486;-65
2021/07/17 10:53:42;;;;;;;19.87;17.47;;;21.60;99.90;;;;;;5089065;28;20837;-66
2021/07/17 10:56:47;;;;;;;22.57;18.63;;;21.60;99.90;;;;;;5084327;28;20853;-66
2021/07/17 10:59:45;;;;;;;18.80;16.87;;;21.80;99.90;;;;;;5087864;28;20440;-65
2021/07/17 11:02:15;;;;;;;20.23;15.70;;;22.30;99.90;;;;;;5087945;28;20446;-64
2021/07/17 11:04:52;;;;;;;21.70;17.93;;;22.40;99.90;;;;;;5085472;28;20556;-65
2021/07/17 11:07:44;;;;;;;20.13;18.00;;;22.20;99.90;;;;;;5084536;28;20449;-65
2021/07/17 11:10:18;;;;;;;21.17;18.23;;;22.10;99.90;;;;;;5086990;28;20482;-65
2021/07/17 11:12:58;;;;;;;19.40;17.40;;;22.00;99.90;;;;;;5087960;28;20461;-64
2021/07/17 11:15:39;;;;;;;19.00;16.20;;;21.90;99.90;;;;;;5089970;28;20456;-67
2021/07/17 11:18:35;;;;;;;19.80;17.80;;;21.90;99.90;;;;;;5085434;28;20456;-65
2021/07/17 11:21:06;;;;;;;19.10;17.10;;;22.00;99.90;;;;;;5089197;28;20483;-65
2021/07/17 11:23:36;;;;;;;17.97;16.17;;;22.00;99.90;;;;;;5089874;28;20549;-64
2021/07/17 11:26:06;;;;;;;21.40;18.67;;;22.10;99.90;;;;;;5089564;28;20435;-65
2021/07/17 11:29:10;;;;;;;20.07;17.97;;;21.90;99.90;;;;;;5088234;28;20529;-64
2021/07/17 11:31:51;;;;;;;19.30;15.90;;;21.70;99.90;;;;;;5047444;28;20459;-64
2021/07/17 11:34:49;;;;;;;17.87;16.00;;;21.60;99.90;;;;;;5069410;28;20546;-64
2021/07/17 11:37:24;;;;;;;18.63;16.70;;;21.60;99.90;;;;;;5069211;28;20442;-64
2021/07/17 11:39:54;;;;;;;21.80;16.50;;;21.60;99.90;;;;;;5069027;28;20444;-64
2021/07/17 11:42:22;;;;;;;18.73;16.87;;;21.70;99.90;;;;;;5070185;28;20434;-64
2021/07/17 11:44:51;;;;;;;18.40;16.40;;;21.80;99.90;;;;;;5072633;28;20463;-64
2021/07/17 11:47:20;;;;;;;18.30;16.33;;;21.80;99.90;;;;;;5079237;28;20466;-63
2021/07/17 11:49:49;;;;;;;18.90;16.90;;;21.70;99.90;;;;;;5091931;28;20609;-71
2021/07/17 11:52:21;;;;;;;21.53;16.30;;;21.70;99.90;;;;;;5093104;28;20473;-64
2021/07/17 11:54:52;;;;;;;17.93;16.20;;;21.60;99.90;;;;;;5093158;28;20465;-64
2021/07/17 11:57:21;;;;;;;20.53;17.03;;;21.50;99.90;;;;;;5092793;28;20966;-63
2021/07/17 11:59:55;;;;;;;18.63;16.77;;;21.50;99.90;;;;;;5092871;28;20532;-62
2021/07/17 12:02:24;;;;;;;17.67;16.00;;;21.50;99.90;;;;;;5092751;28;20449;-64
2021/07/17 12:04:53;;;;;;;23.80;18.70;;;21.40;99.90;;;;;;5092860;28;20457;-64
2021/07/17 12:07:23;;;;;;;18.13;16.13;;;21.40;99.90;;;;;;5092725;28;20457;-63
2021/07/17 12:09:52;;;;;;;18.70;16.70;;;21.40;99.90;;;;;;5092617;28;20528;-64
2021/07/17 12:12:26;;;;;;;17.67;15.83;;;21.40;99.90;;;;;;5092844;28;20452;-64
2021/07/17 12:15:03;;;;;;;19.93;16.13;;;21.50;99.90;;;;;;5092772;28;20450;-65
2021/07/17 12:17:30;;;;;;;20.40;17.10;;;21.70;99.90;;;;;;5093329;28;20534;-64
2021/07/17 12:20:16;;;;;;;17.90;16.03;;;21.80;99.90;;;;;;5092057;28;20537;-64
2021/07/17 12:23:00;;;;;;;18.30;16.60;;;22.00;99.90;;;;;;5092618;28;20444;-65
2021/07/17 12:25:29;;;;;;;17.90;14.77;;;22.00;99.90;;;;;;5092616;28;20521;-64
2021/07/17 12:28:02;;;;;;;20.03;15.20;;;21.90;99.90;;;;;;5092332;28;20448;-65
2021/07/17 12:30:31;;;;;;;16.73;14.93;;;22.00;99.90;;;;;;5089025;28;20478;-65
2021/07/17 12:33:33;;;;;;;18.73;16.93;;;22.00;99.90;;;;;;5088291;28;20545;-65
2021/07/17 12:36:12;;;;;;;20.20;18.10;;;22.10;99.90;;;;;;5029486;28;21001;-65
2021/07/17 12:38:44;;;;;;;17.47;15.27;;;21.90;99.90;;;;;;5029372;28;20534;-65
2021/07/17 12:41:13;;;;;;;17.20;15.40;;;21.80;99.90;;;;;;5052986;28;20443;-65
2021/07/17 12:43:43;;;;;;;17.00;15.30;;;21.80;99.90;;;;;;5080834;28;20528;-65